Time;durP1;ratioP1;P1;durP2;ratioP2;P2;SDS_P1;SDS_P2;PMS_P1;PMS_P2;Temp;Humidity;BMP_temperature;BMP_pressure;BME280_temperature;BME280_humidity;BME280_pressure;Samples;Min_cycle;Max_cycle;Signal;HPM_P1;HPM_P2
2022/03/18 00:00:20;;;;;;;32.80;16.95;;;;;;;;;;6218478;28;20117;-80
2022/03/18 00:03:22;;;;;;;20.13;8.70;;;;;;;;;;6219465;28;20108;-81
2022/03/18 00:06:24;;;;;;;30.45;13.02;;;;;;;;;;6236689;28;20061;-80
2022/03/18 00:09:25;;;;;;;29.45;12.75;;;;;;;;;;6222104;28;20052;-80
2022/03/18 00:12:27;;;;;;;35.45;13.88;;;;;;;;;;6213886;28;20074;-80
2022/03/18 00:15:29;;;;;;;23.48;10.15;;;;;;;;;;6220856;28;20100;-80
2022/03/18 00:18:31;;;;;;;22.67;9.05;;;;;;;;;;6221809;28;20048;-79
2022/03/18 00:21:34;;;;;;;20.40;9.20;;;;;;;;;;6220869;28;20132;-80
2022/03/18 00:24:36;;;;;;;20.20;8.10;;;;;;;;;;6219013;28;20125;-81
2022/03/18 00:27:39;;;;;;;20.08;8.60;;;;;;;;;;6219005;28;20136;-80
2022/03/18 00:30:41;;;;;;;16.35;9.05;;;;;;;;;;6252526;28;20103;-80
2022/03/18 00:33:42;;;;;;;20.08;9.10;;;;;;;;;;6223400;28;20124;-79
2022/03/18 00:36:44;;;;;;;14.88;8.07;;;;;;;;;;6220577;28;20069;-80
2022/03/18 00:39:46;;;;;;;18.77;8.90;;;;;;;;;;6222254;28;20085;-80
2022/03/18 00:42:48;;;;;;;19.80;9.30;;;;;;;;;;6223145;28;20663;-80
2022/03/18 00:45:49;;;;;;;18.17;8.77;;;;;;;;;;6224496;28;20109;-80
2022/03/18 00:52:14;;;;;;;17.38;7.75;;;;;;;;;;6237010;28;20053;-79
2022/03/18 00:55:15;;;;;;;18.48;6.60;;;;;;;;;;6223334;28;20050;-79
2022/03/18 00:58:17;;;;;;;20.40;8.13;;;;;;;;;;6232589;28;20064;-80
2022/03/18 01:01:19;;;;;;;19.17;7.80;;;;;;;;;;6246120;28;20502;-80
2022/03/18 01:04:22;;;;;;;14.80;7.13;;;;;;;;;;6247927;28;20101;-80
2022/03/18 01:07:24;;;;;;;15.35;7.43;;;;;;;;;;6246288;28;20065;-80
2022/03/18 01:10:25;;;;;;;17.35;7.13;;;;;;;;;;6247986;28;20037;-80
2022/03/18 01:13:27;;;;;;;17.52;7.28;;;;;;;;;;6236632;28;20120;-80
2022/03/18 01:16:29;;;;;;;18.77;7.50;;;;;;;;;;6220526;28;20050;-79
2022/03/18 01:19:30;;;;;;;17.73;8.32;;;;;;;;;;6221960;28;20064;-80
2022/03/18 01:22:32;;;;;;;16.35;7.40;;;;;;;;;;6242967;28;20033;-80
2022/03/18 01:25:34;;;;;;;18.17;7.82;;;;;;;;;;6247837;28;20065;-80
2022/03/18 01:28:36;;;;;;;18.20;7.57;;;;;;;;;;6216102;28;20049;-79
2022/03/18 01:31:37;;;;;;;13.15;7.45;;;;;;;;;;6220963;28;20061;-80
2022/03/18 01:34:39;;;;;;;12.63;7.00;;;;;;;;;;6220104;28;20732;-80
2022/03/18 01:37:41;;;;;;;17.55;8.07;;;;;;;;;;6236021;28;20125;-80
2022/03/18 01:40:42;;;;;;;16.70;7.93;;;;;;;;;;6220984;28;20077;-80
2022/03/18 01:43:46;;;;;;;16.95;7.10;;;;;;;;;;6235834;28;20055;-79
2022/03/18 01:46:48;;;;;;;;;;;;;;;;;;6271062;28;20178;-79
2022/03/18 01:49:50;;;;;;;20.20;7.00;;;;;;;;;;6245896;28;19928;-79
2022/03/18 01:52:52;;;;;;;17.63;7.70;;;;;;;;;;6222673;28;20112;-79
2022/03/18 01:55:55;;;;;;;18.60;7.65;;;;;;;;;;6237031;28;20073;-80
2022/03/18 01:58:57;;;;;;;12.70;7.32;;;;;;;;;;6236728;28;20585;-80
2022/03/18 02:01:58;;;;;;;16.88;6.97;;;;;;;;;;6239718;28;20050;-80
2022/03/18 02:05:01;;;;;;;13.50;7.28;;;;;;;;;;6223271;28;20050;-80
2022/03/18 02:08:06;;;;;;;15.48;6.93;;;;;;;;;;6232525;28;20066;-80
2022/03/18 02:11:08;;;;;;;17.65;6.80;;;;;;;;;;6263528;28;20045;-80
2022/03/18 02:14:10;;;;;;;14.65;6.68;;;;;;;;;;6225833;28;20129;-80
2022/03/18 02:17:14;;;;;;;20.30;7.53;;;;;;;;;;6241181;28;20041;-79
2022/03/18 02:20:15;;;;;;;15.93;6.45;;;;;;;;;;6245213;28;20088;-80
2022/03/18 02:23:17;;;;;;;13.38;5.93;;;;;;;;;;6230012;28;20119;-79
2022/03/18 02:26:19;;;;;;;14.13;6.47;;;;;;;;;;6222656;28;20128;-79
2022/03/18 02:29:22;;;;;;;15.32;6.95;;;;;;;;;;6222341;28;20096;-80
2022/03/18 02:32:24;;;;;;;13.43;7.10;;;;;;;;;;6222652;28;20081;-80
2022/03/18 02:35:28;;;;;;;14.95;6.63;;;;;;;;;;6228503;28;20140;-81
2022/03/18 02:38:31;;;;;;;14.65;6.68;;;;;;;;;;6242149;28;20041;-78
2022/03/18 02:41:33;;;;;;;14.82;5.78;;;;;;;;;;6237412;28;20045;-79
2022/03/18 02:44:35;;;;;;;11.63;5.80;;;;;;;;;;6225344;28;20325;-79
2022/03/18 02:47:37;;;;;;;16.20;5.90;;;;;;;;;;6236452;28;20053;-80
2022/03/18 02:50:39;;;;;;;16.48;6.63;;;;;;;;;;6243503;28;20065;-80
2022/03/18 02:53:41;;;;;;;14.15;6.03;;;;;;;;;;6224119;28;20474;-80
2022/03/18 02:56:42;;;;;;;14.52;6.32;;;;;;;;;;6233339;28;20041;-79
2022/03/18 02:59:44;;;;;;;15.15;6.10;;;;;;;;;;6224280;28;20049;-81
2022/03/18 03:02:46;;;;;;;14.70;5.95;;;;;;;;;;6257565;28;20057;-80
2022/03/18 03:09:08;;;;;;;9.15;4.72;;;;;;;;;;6220011;28;20041;-80
2022/03/18 03:12:09;;;;;;;12.13;6.28;;;;;;;;;;6224262;28;20463;-80
2022/03/18 03:15:11;;;;;;;13.68;6.45;;;;;;;;;;6223376;28;20087;-80
2022/03/18 03:18:13;;;;;;;16.10;6.82;;;;;;;;;;6243451;28;20122;-80
2022/03/18 03:21:15;;;;;;;14.23;6.10;;;;;;;;;;6232942;28;20584;-80
2022/03/18 03:24:17;;;;;;;12.88;5.97;;;;;;;;;;6221637;28;20092;-81
2022/03/18 03:27:18;;;;;;;14.68;5.65;;;;;;;;;;6223313;28;20143;-80
2022/03/18 03:30:20;;;;;;;16.65;6.22;;;;;;;;;;6244849;28;20092;-79
2022/03/18 03:33:22;;;;;;;12.50;5.95;;;;;;;;;;6246027;28;20045;-80
2022/03/18 03:36:27;;;;;;;17.17;6.00;;;;;;;;;;6245620;28;20068;-80
2022/03/18 03:39:28;;;;;;;11.98;6.18;;;;;;;;;;6224941;28;20080;-80
2022/03/18 03:42:30;;;;;;;12.70;5.78;;;;;;;;;;6222668;28;20128;-80
2022/03/18 03:45:32;;;;;;;11.35;5.90;;;;;;;;;;6245542;28;20092;-81
2022/03/18 03:48:33;;;;;;;12.00;5.20;;;;;;;;;;6277239;28;20051;-80
2022/03/18 03:51:35;;;;;;;16.95;6.22;;;;;;;;;;6229408;28;20081;-80
2022/03/18 03:54:37;;;;;;;15.15;5.80;;;;;;;;;;6217722;28;20508;-80
2022/03/18 03:57:40;;;;;;;15.15;6.53;;;;;;;;;;6225569;28;20117;-80
2022/03/18 04:00:42;;;;;;;11.60;6.00;;;;;;;;;;6244608;28;20053;-80
2022/03/18 04:03:45;;;;;;;8.90;4.95;;;;;;;;;;6245620;28;20041;-80
2022/03/18 04:06:48;;;;;;;13.98;6.32;;;;;;;;;;6245015;28;20072;-78
2022/03/18 04:09:51;;;;;;;10.20;5.63;;;;;;;;;;6251460;28;20174;-79
2022/03/18 04:12:54;;;;;;;13.27;5.85;;;;;;;;;;6240232;28;20114;-79
2022/03/18 04:15:55;;;;;;;15.35;6.90;;;;;;;;;;6229620;28;20044;-78
2022/03/18 04:18:57;;;;;;;14.73;6.25;;;;;;;;;;6240443;28;20402;-79
2022/03/18 04:21:59;;;;;;;17.77;6.70;;;;;;;;;;6241014;28;20050;-79
2022/03/18 04:25:01;;;;;;;12.90;5.85;;;;;;;;;;6216105;28;20057;-79
2022/03/18 04:28:03;;;;;;;16.98;6.55;;;;;;;;;;6233906;28;20033;-80
2022/03/18 04:31:05;;;;;;;15.77;6.55;;;;;;;;;;6220277;28;20049;-80
2022/03/18 04:34:06;;;;;;;13.18;6.28;;;;;;;;;;6218996;28;20097;-80
2022/03/18 04:37:08;;;;;;;16.35;6.90;;;;;;;;;;6221477;28;20066;-80
2022/03/18 04:40:12;;;;;;;14.60;7.25;;;;;;;;;;6220027;28;20149;-80
2022/03/18 04:43:14;;;;;;;10.73;5.60;;;;;;;;;;6221214;28;20069;-80
2022/03/18 04:46:15;;;;;;;16.33;5.70;;;;;;;;;;6221334;28;20065;-80
2022/03/18 04:49:17;;;;;;;18.88;7.97;;;;;;;;;;6222416;28;20184;-78
2022/03/18 04:52:19;;;;;;;16.85;7.57;;;;;;;;;;6206909;28;20173;-80
2022/03/18 04:55:20;;;;;;;21.35;9.32;;;;;;;;;;6192861;28;20046;-81
2022/03/18 04:58:23;;;;;;;22.95;10.60;;;;;;;;;;6228652;28;20046;-79
2022/03/18 05:01:26;;;;;;;18.95;9.25;;;;;;;;;;6220616;28;20129;-78
2022/03/18 05:04:28;;;;;;;21.05;8.55;;;;;;;;;;6222399;28;20057;-78
2022/03/18 05:07:31;;;;;;;18.38;8.32;;;;;;;;;;6224135;28;20053;-79
2022/03/18 05:10:33;;;;;;;15.40;7.28;;;;;;;;;;6223813;28;20706;-79
2022/03/18 05:13:35;;;;;;;12.95;7.00;;;;;;;;;;6220390;28;20067;-79
2022/03/18 05:16:36;;;;;;;13.20;6.18;;;;;;;;;;6234694;28;20133;-78
2022/03/18 05:19:38;;;;;;;14.70;6.72;;;;;;;;;;6242726;28;20089;-79
2022/03/18 05:22:40;;;;;;;14.25;6.25;;;;;;;;;;6218550;28;20070;-79
2022/03/18 05:25:41;;;;;;;12.73;6.32;;;;;;;;;;6219501;28;20128;-79
2022/03/18 05:28:43;;;;;;;17.38;6.88;;;;;;;;;;6216587;28;20089;-80
2022/03/18 05:31:46;;;;;;;17.02;6.97;;;;;;;;;;6217192;28;20069;-79
2022/03/18 05:34:48;;;;;;;13.77;6.55;;;;;;;;;;6219164;28;20054;-78
2022/03/18 05:37:49;;;;;;;15.38;7.40;;;;;;;;;;6215010;28;20077;-77
2022/03/18 05:40:52;;;;;;;14.95;6.43;;;;;;;;;;6218371;28;20124;-77
2022/03/18 05:43:53;;;;;;;14.60;7.05;;;;;;;;;;6217397;28;20034;-78
2022/03/18 05:46:56;;;;;;;18.00;6.72;;;;;;;;;;6219005;28;20037;-77
2022/03/18 05:50:03;;;;;;;12.10;6.37;;;;;;;;;;6242602;28;20499;-77
2022/03/18 05:53:05;;;;;;;16.80;7.00;;;;;;;;;;6225380;28;20188;-78
2022/03/18 05:59:29;;;;;;;23.73;7.15;;;;;;;;;;6218307;28;20173;-78
2022/03/18 06:02:33;;;;;;;16.92;7.68;;;;;;;;;;6231543;28;20153;-78
2022/03/18 06:05:35;;;;;;;17.83;7.20;;;;;;;;;;6218722;28;20057;-78
2022/03/18 06:11:57;;;;;;;14.93;7.10;;;;;;;;;;6216901;28;20128;-77
2022/03/18 06:14:59;;;;;;;15.60;7.78;;;;;;;;;;6218589;28;20231;-78
2022/03/18 06:18:01;;;;;;;15.85;7.07;;;;;;;;;;6218131;28;20073;-78
2022/03/18 06:21:09;;;;;;;20.77;8.43;;;;;;;;;;6229738;28;20124;-78
2022/03/18 06:24:12;;;;;;;18.92;8.27;;;;;;;;;;6216183;28;20192;-78
2022/03/18 06:27:14;;;;;;;20.98;8.82;;;;;;;;;;6217785;28;20125;-77
2022/03/18 06:30:15;;;;;;;19.88;10.65;;;;;;;;;;6226734;28;20061;-77
2022/03/18 06:33:17;;;;;;;24.05;10.63;;;;;;;;;;6220051;28;20065;-78
2022/03/18 06:36:19;;;;;;;22.55;10.52;;;;;;;;;;6215102;28;20069;-78
2022/03/18 06:39:22;;;;;;;22.42;11.60;;;;;;;;;;6214917;28;20073;-78
2022/03/18 06:42:24;;;;;;;26.10;12.43;;;;;;;;;;6214570;28;20050;-79
2022/03/18 06:45:26;;;;;;;27.40;12.97;;;;;;;;;;6216578;28;20771;-79
2022/03/18 06:48:28;;;;;;;25.17;10.98;;;;;;;;;;6240776;28;20049;-79
2022/03/18 06:51:30;;;;;;;25.25;12.02;;;;;;;;;;6225806;28;20105;-78
2022/03/18 06:54:32;;;;;;;18.67;8.90;;;;;;;;;;6216651;28;20046;-78
2022/03/18 06:57:33;;;;;;;14.48;8.00;;;;;;;;;;6216227;28;20530;-76
2022/03/18 07:00:41;;;;;;;18.17;8.45;;;;;;;;;;6216113;28;20167;-79
2022/03/18 07:03:43;;;;;;;20.02;8.30;;;;;;;;;;6216674;28;20046;-80
2022/03/18 07:06:46;;;;;;;14.98;7.80;;;;;;;;;;6214200;28;20069;-79
2022/03/18 07:09:47;;;;;;;16.30;7.57;;;;;;;;;;6214352;28;20365;-79
2022/03/18 07:12:49;;;;;;;17.48;8.15;;;;;;;;;;6210310;28;20058;-78
2022/03/18 07:15:51;;;;;;;15.00;6.80;;;;;;;;;;6214598;28;20049;-79
2022/03/18 07:18:54;;;;;;;11.48;6.10;;;;;;;;;;6216324;28;20139;-79
2022/03/18 07:21:55;;;;;;;13.35;5.38;;;;;;;;;;6224020;28;20101;-78
2022/03/18 07:24:57;;;;;;;9.45;3.53;;;;;;;;;;6238701;28;20045;-79
2022/03/18 07:27:59;;;;;;;12.07;3.90;;;;;;;;;;6234342;28;20165;-76
2022/03/18 07:31:01;;;;;;;4.75;1.58;;;;;;;;;;6250013;28;20053;-79
2022/03/18 07:34:02;;;;;;;4.93;2.20;;;;;;;;;;6215199;28;20573;-80
2022/03/18 07:37:04;;;;;;;5.55;1.25;;;;;;;;;;6225029;28;20049;-79
2022/03/18 07:40:08;;;;;;;4.32;1.35;;;;;;;;;;6238682;28;20049;-80
2022/03/18 07:43:10;;;;;;;2.85;0.80;;;;;;;;;;6238747;28;20128;-79
2022/03/18 07:46:12;;;;;;;4.80;1.00;;;;;;;;;;6232454;28;20089;-78
2022/03/18 07:49:14;;;;;;;4.30;1.27;;;;;;;;;;6239615;28;20068;-80
2022/03/18 07:52:15;;;;;;;4.38;0.95;;;;;;;;;;6225410;28;20124;-78
2022/03/18 07:55:18;;;;;;;3.67;1.00;;;;;;;;;;6215224;28;20105;-78
2022/03/18 07:58:20;;;;;;;4.45;0.93;;;;;;;;;;6225236;28;20098;-80
2022/03/18 08:01:21;;;;;;;2.70;0.80;;;;;;;;;;6238889;28;20061;-79
2022/03/18 08:04:23;;;;;;;2.95;0.90;;;;;;;;;;6234372;28;20049;-78
2022/03/18 08:07:26;;;;;;;1.35;0.63;;;;;;;;;;6224527;28;20042;-79
2022/03/18 08:10:29;;;;;;;1.08;0.70;;;;;;;;;;6214904;28;20073;-74
2022/03/18 08:13:30;;;;;;;5.13;1.00;;;;;;;;;;6210827;28;20057;-78
2022/03/18 08:16:32;;;;;;;3.47;0.95;;;;;;;;;;6213238;28;20130;-78
2022/03/18 08:19:34;;;;;;;4.20;1.20;;;;;;;;;;6217406;28;20049;-79
2022/03/18 08:22:36;;;;;;;2.80;1.75;;;;;;;;;;6220909;28;20066;-79
2022/03/18 08:25:38;;;;;;;2.53;0.75;;;;;;;;;;6221528;28;20127;-78
2022/03/18 08:28:40;;;;;;;4.03;1.00;;;;;;;;;;6217773;28;20132;-80
2022/03/18 08:31:42;;;;;;;4.13;1.15;;;;;;;;;;6220593;28;20060;-80
2022/03/18 08:34:44;;;;;;;3.70;1.25;;;;;;;;;;6216875;28;20048;-77
2022/03/18 08:37:57;;;;;;;2.58;1.05;;;;;;;;;;6218839;28;20050;-79
2022/03/18 08:40:59;;;;;;;2.80;0.80;;;;;;;;;;6219089;28;20053;-80
2022/03/18 08:44:04;;;;;;;4.93;0.85;;;;;;;;;;6233571;28;20119;-78
2022/03/18 08:47:06;;;;;;;1.58;0.68;;;;;;;;;;6227666;28;20049;-79
2022/03/18 08:50:08;;;;;;;1.92;1.02;;;;;;;;;;6228556;28;20057;-80
2022/03/18 08:53:10;;;;;;;10.25;4.53;;;;;;;;;;6233898;28;20446;-78
2022/03/18 08:56:13;;;;;;;46.05;29.35;;;;;;;;;;6246670;28;20052;-79
2022/03/18 08:59:14;;;;;;;28.95;24.05;;;;;;;;;;6226566;28;20104;-78
2022/03/18 09:02:16;;;;;;;2.15;1.55;;;;;;;;;;6240940;28;20049;-80
2022/03/18 09:05:19;;;;;;;5.75;2.05;;;;;;;;;;6251975;28;20056;-78
2022/03/18 09:08:21;;;;;;;6.65;1.38;;;;;;;;;;6234688;28;20046;-78
2022/03/18 09:11:22;;;;;;;4.65;2.50;;;;;;;;;;6219873;28;20046;-77
2022/03/18 09:14:24;;;;;;;3.40;0.98;;;;;;;;;;6236351;28;20135;-79
2022/03/18 09:17:26;;;;;;;3.35;1.30;;;;;;;;;;6232025;28;20046;-79
2022/03/18 09:20:27;;;;;;;4.18;1.80;;;;;;;;;;6223541;28;20105;-80
2022/03/18 09:23:29;;;;;;;6.82;1.33;;;;;;;;;;6223250;28;20053;-78
2022/03/18 09:26:31;;;;;;;2.42;1.05;;;;;;;;;;6209684;28;20067;-78
2022/03/18 09:29:32;;;;;;;3.90;1.25;;;;;;;;;;6212992;28;20049;-77
2022/03/18 09:32:34;;;;;;;3.30;1.45;;;;;;;;;;6215730;28;21166;-81
2022/03/18 09:35:36;;;;;;;4.60;1.60;;;;;;;;;;6228150;28;20848;-80
2022/03/18 09:38:38;;;;;;;4.35;1.45;;;;;;;;;;6216666;28;20112;-78
2022/03/18 09:41:40;;;;;;;7.07;1.60;;;;;;;;;;6216939;28;20046;-81
2022/03/18 09:44:41;;;;;;;2.33;1.27;;;;;;;;;;6198182;28;20078;-78
2022/03/18 09:47:43;;;;;;;3.10;0.90;;;;;;;;;;6237325;28;20518;-77
2022/03/18 09:50:45;;;;;;;6.05;1.30;;;;;;;;;;6214852;28;20159;-80
2022/03/18 09:53:49;;;;;;;3.58;1.20;;;;;;;;;;6216640;28;20042;-79
2022/03/18 09:56:51;;;;;;;3.22;1.42;;;;;;;;;;6219030;28;20041;-78
2022/03/18 09:59:53;;;;;;;2.97;1.20;;;;;;;;;;6241235;28;20041;-80
2022/03/18 10:03:12;;;;;;;3.88;1.15;;;;;;;;;;6244665;28;20065;-80
2022/03/18 10:06:13;;;;;;;3.13;1.23;;;;;;;;;;6243141;28;20034;-79
2022/03/18 10:09:15;;;;;;;2.10;1.00;;;;;;;;;;6244843;28;20119;-79
2022/03/18 10:12:36;;;;;;;4.28;1.20;;;;;;;;;;6241065;28;20049;-78
2022/03/18 10:15:39;;;;;;;3.35;1.00;;;;;;;;;;6243364;28;20162;-79
2022/03/18 10:18:48;;;;;;;5.70;0.82;;;;;;;;;;6244790;28;20383;-79
2022/03/18 10:21:58;;;;;;;3.67;1.10;;;;;;;;;;6216238;28;20093;-79
2022/03/18 10:25:01;;;;;;;4.00;0.85;;;;;;;;;;6196608;28;20090;-80
2022/03/18 10:28:04;;;;;;;2.28;0.90;;;;;;;;;;6203585;28;20045;-81
2022/03/18 10:31:14;;;;;;;2.72;0.85;;;;;;;;;;6244031;28;20100;-81
2022/03/18 10:37:51;;;;;;;4.63;0.90;;;;;;;;;;6258901;28;20101;-81
2022/03/18 10:40:53;;;;;;;1.17;0.70;;;;;;;;;;6262653;28;20119;-79
2022/03/18 10:43:55;;;;;;;2.17;0.50;;;;;;;;;;6234810;28;20144;-80
2022/03/18 10:46:57;;;;;;;2.42;0.80;;;;;;;;;;6225334;28;20292;-79
2022/03/18 10:50:11;;;;;;;2.25;0.60;;;;;;;;;;6254386;28;20164;-79
2022/03/18 10:53:13;;;;;;;2.53;1.13;;;;;;;;;;6226059;28;20042;-79
2022/03/18 10:56:15;;;;;;;3.13;0.73;;;;;;;;;;6224652;28;20084;-82
2022/03/18 10:59:17;;;;;;;4.03;0.85;;;;;;;;;;6216626;28;20125;-80
2022/03/18 11:02:20;;;;;;;2.33;0.65;;;;;;;;;;6222925;28;20042;-81
2022/03/18 11:05:22;;;;;;;;;;;;;;;;;;6223801;28;20068;-79
2022/03/18 11:08:31;;;;;;;2.85;0.88;;;;;;;;;;6239923;28;19971;-81
2022/03/18 11:11:33;;;;;;;2.22;1.00;;;;;;;;;;6242846;28;20120;-81
2022/03/18 11:14:35;;;;;;;3.00;0.80;;;;;;;;;;6221511;28;20058;-78
2022/03/18 11:17:40;;;;;;;2.67;0.43;;;;;;;;;;6241806;28;20060;-80
2022/03/18 11:20:43;;;;;;;2.60;0.75;;;;;;;;;;6240234;28;20045;-81
2022/03/18 11:23:45;;;;;;;4.75;0.60;;;;;;;;;;6244015;28;20205;-79
2022/03/18 11:26:49;;;;;;;2.47;0.50;;;;;;;;;;6241848;28;20052;-79
2022/03/18 11:30:16;;;;;;;0.77;0.50;;;;;;;;;;6217813;28;20056;-79
2022/03/18 11:33:19;;;;;;;2.40;0.50;;;;;;;;;;6218995;28;20714;-82
2022/03/18 11:36:21;;;;;;;1.67;0.60;;;;;;;;;;6217277;28;20128;-80
2022/03/18 11:39:22;;;;;;;1.80;0.70;;;;;;;;;;6224990;28;20041;-81
2022/03/18 11:42:24;;;;;;;2.13;0.60;;;;;;;;;;6242275;28;20182;-78
2022/03/18 11:45:38;;;;;;;1.23;0.57;;;;;;;;;;6244916;28;20240;-81
2022/03/18 11:48:49;;;;;;;1.23;0.40;;;;;;;;;;6238350;28;20042;-79
2022/03/18 11:52:00;;;;;;;2.47;0.60;;;;;;;;;;6212657;28;20108;-78
2022/03/18 11:55:09;;;;;;;1.48;0.45;;;;;;;;;;6201174;28;20100;-79
2022/03/18 11:58:26;;;;;;;2.45;0.65;;;;;;;;;;6245071;28;20065;-77
2022/03/18 12:01:41;;;;;;;2.28;0.45;;;;;;;;;;6233066;28;20455;-78
2022/03/18 12:04:47;;;;;;;2.05;0.70;;;;;;;;;;6232289;28;20714;-80
2022/03/18 12:07:51;;;;;;;2.28;0.45;;;;;;;;;;6219285;28;20411;-78
2022/03/18 12:10:54;;;;;;;2.00;0.50;;;;;;;;;;6258508;28;20110;-81
2022/03/18 12:13:56;;;;;;;1.17;0.50;;;;;;;;;;6225120;28;20109;-79
2022/03/18 12:16:58;;;;;;;2.10;0.67;;;;;;;;;;6212678;28;20101;-79
2022/03/18 12:20:14;;;;;;;;;;;;;;;;;;6245177;28;20080;-79
2022/03/18 12:23:16;;;;;;;1.17;0.60;;;;;;;;;;6246696;28;20075;-79
2022/03/18 12:26:18;;;;;;;1.27;0.50;;;;;;;;;;6237054;28;20125;-81
2022/03/18 12:29:28;;;;;;;2.40;0.77;;;;;;;;;;6223815;28;20133;-81
2022/03/18 12:32:30;;;;;;;3.13;0.57;;;;;;;;;;6217254;28;20492;-81
2022/03/18 12:35:32;;;;;;;1.85;0.68;;;;;;;;;;6235872;28;20064;-80
2022/03/18 12:38:35;;;;;;;3.85;0.80;;;;;;;;;;6277752;28;20049;-81
2022/03/18 12:41:37;;;;;;;1.50;0.70;;;;;;;;;;6248192;28;20130;-80
2022/03/18 12:44:46;;;;;;;1.45;0.70;;;;;;;;;;6223041;28;20050;-83
2022/03/18 12:47:50;;;;;;;2.00;0.77;;;;;;;;;;6239522;28;20068;-78
2022/03/18 12:50:56;;;;;;;4.75;0.70;;;;;;;;;;6245978;28;20099;-78
2022/03/18 12:53:58;;;;;;;2.10;0.43;;;;;;;;;;6243709;28;20064;-82
2022/03/18 12:57:25;;;;;;;1.08;0.52;;;;;;;;;;6243892;28;20511;-81
2022/03/18 13:00:28;;;;;;;1.42;0.40;;;;;;;;;;6218739;28;20052;-82
2022/03/18 13:03:50;;;;;;;2.40;0.80;;;;;;;;;;6223977;28;20172;-80
2022/03/18 13:06:54;;;;;;;1.33;0.63;;;;;;;;;;6239335;28;20045;-80
2022/03/18 13:09:56;;;;;;;1.23;0.60;;;;;;;;;;6225167;28;20041;-79
2022/03/18 13:13:09;;;;;;;3.33;0.88;;;;;;;;;;6255277;28;20153;-80
2022/03/18 13:16:11;;;;;;;2.65;0.57;;;;;;;;;;6242480;28;20131;-81
2022/03/18 13:19:13;;;;;;;2.42;0.70;;;;;;;;;;6235743;28;20042;-78
2022/03/18 13:22:20;;;;;;;1.37;0.50;;;;;;;;;;6225221;28;20060;-80
2022/03/18 13:25:23;;;;;;;1.08;0.40;;;;;;;;;;6224709;28;20070;-80
2022/03/18 13:28:28;;;;;;;0.65;0.40;;;;;;;;;;6236234;28;20091;-79
2022/03/18 13:34:50;;;;;;;1.85;0.40;;;;;;;;;;6233021;28;20045;-80
2022/03/18 13:38:10;;;;;;;1.40;0.40;;;;;;;;;;6237152;28;20410;-81
2022/03/18 13:41:14;;;;;;;1.33;0.40;;;;;;;;;;6228336;28;20077;-79
2022/03/18 13:44:16;;;;;;;2.67;0.60;;;;;;;;;;6224376;28;20101;-79
2022/03/18 13:47:18;;;;;;;3.45;0.55;;;;;;;;;;6233257;28;20080;-78
2022/03/18 13:50:20;;;;;;;2.28;1.05;;;;;;;;;;6225297;28;20034;-81
2022/03/18 13:53:24;;;;;;;1.73;0.47;;;;;;;;;;6237092;28;20136;-81
2022/03/18 13:56:26;;;;;;;1.05;0.38;;;;;;;;;;6220514;28;20145;-80
2022/03/18 13:59:29;;;;;;;1.58;0.40;;;;;;;;;;6215544;28;20058;-82
2022/03/18 14:02:32;;;;;;;0.77;0.30;;;;;;;;;;6218703;28;20045;-79
2022/03/18 14:05:35;;;;;;;1.20;0.70;;;;;;;;;;6239310;28;20503;-81
2022/03/18 14:08:39;;;;;;;;;;;;;;;;;;6210159;28;20452;-77
2022/03/18 14:15:18;;;;;;;0.93;0.40;;;;;;;;;;6223886;28;20490;-79
2022/03/18 14:18:21;;;;;;;1.02;0.50;;;;;;;;;;6246221;28;20119;-80
2022/03/18 14:21:23;;;;;;;1.75;0.65;;;;;;;;;;6262949;28;20045;-82
2022/03/18 14:24:25;;;;;;;0.52;0.40;;;;;;;;;;6261015;28;20080;-81
2022/03/18 14:27:27;;;;;;;0.63;0.32;;;;;;;;;;6222423;28;20128;-82
2022/03/18 14:30:28;;;;;;;0.68;0.47;;;;;;;;;;6220647;28;20052;-81
2022/03/18 14:33:33;;;;;;;1.07;0.50;;;;;;;;;;6251299;28;20403;-81
2022/03/18 14:36:34;;;;;;;0.30;0.30;;;;;;;;;;6223838;28;20136;-79
2022/03/18 14:39:36;;;;;;;1.42;0.45;;;;;;;;;;6222676;28;20070;-79
2022/03/18 14:42:39;;;;;;;1.05;0.50;;;;;;;;;;6228421;28;20101;-80
2022/03/18 14:45:41;;;;;;;1.23;0.50;;;;;;;;;;6240043;28;20056;-79
2022/03/18 14:48:44;;;;;;;1.02;0.60;;;;;;;;;;6246562;28;20395;-78
2022/03/18 14:51:46;;;;;;;0.80;0.50;;;;;;;;;;6241155;28;20511;-79
2022/03/18 14:58:08;;;;;;;1.95;0.68;;;;;;;;;;6218949;28;20072;-80
2022/03/18 15:01:09;;;;;;;0.70;0.50;;;;;;;;;;6220430;28;20147;-78
2022/03/18 15:04:14;;;;;;;1.30;0.40;;;;;;;;;;6218064;28;20045;-79
2022/03/18 15:07:16;;;;;;;1.35;0.43;;;;;;;;;;6218105;28;20096;-80
2022/03/18 15:10:17;;;;;;;0.85;0.43;;;;;;;;;;6221247;28;20049;-80
2022/03/18 15:13:22;;;;;;;7.28;1.17;;;;;;;;;;6221843;28;20144;-81
2022/03/18 15:16:26;;;;;;;0.63;0.50;;;;;;;;;;6236208;28;20057;-80
2022/03/18 15:19:29;;;;;;;1.23;0.40;;;;;;;;;;6243804;28;20053;-79
2022/03/18 15:22:34;;;;;;;1.10;0.70;;;;;;;;;;6211646;28;20041;-79
2022/03/18 15:25:36;;;;;;;1.23;0.63;;;;;;;;;;6219791;28;20145;-79
2022/03/18 15:28:38;;;;;;;2.50;0.67;;;;;;;;;;6205961;28;20096;-80
2022/03/18 15:31:40;;;;;;;1.13;0.50;;;;;;;;;;6215013;28;20045;-81
2022/03/18 15:34:42;;;;;;;2.00;0.55;;;;;;;;;;6226911;28;20045;-80
2022/03/18 15:37:44;;;;;;;2.92;0.70;;;;;;;;;;6241832;28;20049;-80
2022/03/18 15:40:45;;;;;;;1.58;0.95;;;;;;;;;;6219586;28;20074;-81
2022/03/18 15:43:48;;;;;;;1.95;0.80;;;;;;;;;;6222881;28;20041;-81
2022/03/18 15:46:49;;;;;;;2.73;0.70;;;;;;;;;;6244201;28;20069;-80
2022/03/18 15:49:51;;;;;;;2.35;0.80;;;;;;;;;;6218245;28;20097;-80
2022/03/18 15:52:54;;;;;;;3.50;1.00;;;;;;;;;;6199350;28;20042;-80
2022/03/18 15:55:56;;;;;;;0.70;0.70;;;;;;;;;;6201350;28;20042;-80
2022/03/18 15:58:58;;;;;;;1.08;0.63;;;;;;;;;;6213506;28;20109;-82
2022/03/18 16:01:59;;;;;;;4.60;1.85;;;;;;;;;;6220889;28;20058;-80
2022/03/18 16:05:01;;;;;;;2.95;0.82;;;;;;;;;;6223075;28;20048;-79
2022/03/18 16:08:05;;;;;;;;;;;;;;;;;;6251186;28;20045;-80
2022/03/18 16:11:07;;;;;;;1.30;0.93;;;;;;;;;;6219851;28;20020;-81
2022/03/18 16:14:08;;;;;;;1.98;0.85;;;;;;;;;;6232519;28;20064;-79
2022/03/18 16:17:10;;;;;;;1.67;0.68;;;;;;;;;;6250978;28;20052;-78
2022/03/18 16:20:13;;;;;;;2.72;0.95;;;;;;;;;;6249848;28;20050;-79
2022/03/18 16:23:15;;;;;;;2.30;1.30;;;;;;;;;;6236005;28;20073;-80
2022/03/18 16:26:18;;;;;;;1.30;0.82;;;;;;;;;;6221625;28;20070;-79
2022/03/18 16:29:21;;;;;;;3.70;1.23;;;;;;;;;;6226300;28;20038;-78
2022/03/18 16:32:23;;;;;;;3.35;1.27;;;;;;;;;;6225148;28;20206;-79
2022/03/18 16:35:25;;;;;;;1.98;1.30;;;;;;;;;;6224944;28;20046;-82
2022/03/18 16:38:28;;;;;;;1.67;0.80;;;;;;;;;;6223779;28;20041;-80
2022/03/18 16:41:29;;;;;;;1.45;0.77;;;;;;;;;;6245737;28;20045;-81
2022/03/18 16:44:32;;;;;;;2.40;0.80;;;;;;;;;;6237412;28;20521;-80
2022/03/18 16:50:54;;;;;;;2.80;0.90;;;;;;;;;;6259743;28;20132;-79
2022/03/18 16:53:56;;;;;;;2.30;1.10;;;;;;;;;;6225129;28;20056;-80
2022/03/18 16:56:58;;;;;;;2.05;0.90;;;;;;;;;;6232284;28;20557;-79
2022/03/18 17:00:01;;;;;;;3.45;1.90;;;;;;;;;;6227638;28;20038;-81
2022/03/18 17:03:05;;;;;;;3.65;2.10;;;;;;;;;;6228779;28;20054;-80
2022/03/18 17:06:10;;;;;;;2.35;1.00;;;;;;;;;;6219464;28;20035;-80
2022/03/18 17:09:14;;;;;;;1.58;0.95;;;;;;;;;;6218734;28;20049;-80
2022/03/18 17:12:18;;;;;;;1.77;1.08;;;;;;;;;;6212852;28;20439;-79
2022/03/18 17:15:20;;;;;;;5.35;1.05;;;;;;;;;;6233230;28;20165;-79
2022/03/18 17:18:22;;;;;;;2.95;0.88;;;;;;;;;;6244080;28;20049;-79
2022/03/18 17:21:24;;;;;;;2.13;1.10;;;;;;;;;;6223111;28;20042;-78
2022/03/18 17:24:26;;;;;;;2.80;0.98;;;;;;;;;;6243394;28;20081;-79
2022/03/18 17:27:28;;;;;;;1.85;1.40;;;;;;;;;;6241901;28;20052;-77
2022/03/18 17:30:30;;;;;;;4.85;1.30;;;;;;;;;;6237909;28;20042;-78
2022/03/18 17:33:34;;;;;;;8.75;6.10;;;;;;;;;;6223613;28;20057;-80
2022/03/18 17:36:36;;;;;;;7.03;3.30;;;;;;;;;;6213577;28;20042;-78
2022/03/18 17:39:37;;;;;;;3.63;1.67;;;;;;;;;;6223170;28;20158;-81
2022/03/18 17:42:40;;;;;;;4.38;2.65;;;;;;;;;;6225546;28;20404;-79
2022/03/18 17:45:42;;;;;;;5.85;1.80;;;;;;;;;;6248684;28;20059;-81
2022/03/18 17:48:44;;;;;;;4.18;2.33;;;;;;;;;;6247820;28;20511;-80
2022/03/18 17:51:48;;;;;;;6.18;3.70;;;;;;;;;;6238485;28;20113;-80
2022/03/18 17:54:51;;;;;;;6.45;2.78;;;;;;;;;;6220769;28;20038;-80
2022/03/18 17:57:53;;;;;;;108.82;37.78;;;;;;;;;;6223737;28;20063;-79
2022/03/18 18:00:55;;;;;;;23.77;9.23;;;;;;;;;;6246031;28;20049;-81
2022/03/18 18:03:57;;;;;;;31.07;11.83;;;;;;;;;;6245113;28;20051;-79
2022/03/18 18:06:59;;;;;;;48.30;17.05;;;;;;;;;;6228598;28;20046;-79
2022/03/18 18:10:00;;;;;;;40.92;14.93;;;;;;;;;;6224100;28;20049;-79
2022/03/18 18:13:02;;;;;;;31.40;12.38;;;;;;;;;;6218797;28;20050;-79
2022/03/18 18:16:04;;;;;;;21.90;8.48;;;;;;;;;;6238235;28;20092;-81
2022/03/18 18:22:27;;;;;;;4.93;1.95;;;;;;;;;;6240025;28;20050;-80
2022/03/18 18:25:28;;;;;;;4.37;1.67;;;;;;;;;;6240343;28;20483;-81
2022/03/18 18:28:30;;;;;;;6.28;2.35;;;;;;;;;;6237493;28;20515;-82
2022/03/18 18:31:34;;;;;;;3.35;1.65;;;;;;;;;;6248771;28;20052;-80
2022/03/18 18:34:39;;;;;;;11.98;6.38;;;;;;;;;;6246859;28;20532;-81
2022/03/18 18:37:42;;;;;;;;;;;;;;;;;;6248530;28;20045;-80
2022/03/18 18:40:47;;;;;;;12.35;5.95;;;;;;;;;;6243044;28;20112;-81
2022/03/18 18:44:11;;;;;;;17.00;8.93;;;;;;;;;;6223318;28;20065;-79